createdAt,value
2023-03-06T00:00:18.251Z,99792.13
2023-03-06T00:02:46.774Z,99792.25
2023-03-06T00:05:14.632Z,99791.94
2023-03-06T00:07:42.273Z,99788.50
2023-03-06T00:10:13.978Z,99779.75
2023-03-06T00:12:42.658Z,99782.44
2023-03-06T00:15:11.660Z,99777.78
2023-03-06T00:17:39.278Z,99774.03
2023-03-06T00:20:08.145Z,99766.44
2023-03-06T00:22:35.572Z,99764.81
2023-03-06T00:25:04.497Z,99766.50
2023-03-06T00:27:33.270Z,99770.66
2023-03-06T00:30:01.810Z,99759.78
2023-03-06T00:32:30.039Z,99755.78
2023-03-06T00:34:58.055Z,99758.19
2023-03-06T00:37:26.428Z,99752.00
2023-03-06T00:39:54.326Z,99756.41
2023-03-06T00:42:21.824Z,99743.97
2023-03-06T00:44:51.546Z,99735.97
2023-03-06T00:47:19.428Z,99728.13
2023-03-06T00:49:47.141Z,99731.31
2023-03-06T00:52:14.870Z,99721.69
2023-03-06T00:54:42.370Z,99709.38
2023-03-06T00:57:10.095Z,99714.94
2023-03-06T00:59:38.162Z,99703.84
2023-03-06T01:02:07.725Z,99696.66
2023-03-06T01:04:35.363Z,99693.19
2023-03-06T01:07:03.699Z,99684.03
2023-03-06T01:09:31.443Z,99682.84
2023-03-06T01:11:59.126Z,99677.59
2023-03-06T01:14:26.808Z,99671.75
2023-03-06T01:16:54.541Z,99667.91
2023-03-06T01:19:23.448Z,99665.00
2023-03-06T01:21:50.873Z,99659.59
2023-03-06T01:24:18.570Z,99663.34
2023-03-06T01:26:45.922Z,99662.13
2023-03-06T01:29:13.705Z,99657.50
2023-03-06T01:31:41.279Z,99651.88
2023-03-06T01:34:09.739Z,99650.78
2023-03-06T01:36:39.038Z,99653.88
2023-03-06T01:39:06.487Z,99643.69
2023-03-06T01:41:33.762Z,99646.25
2023-03-06T01:44:01.654Z,99631.19
2023-03-06T01:46:36.407Z,99617.25
2023-03-06T01:49:08.432Z,99611.03
2023-03-06T01:51:43.966Z,99613.16
2023-03-06T01:54:15.914Z,99615.09
2023-03-06T01:56:47.917Z,99618.00
2023-03-06T01:59:16.389Z,99613.03
2023-03-06T02:01:45.101Z,99611.75
2023-03-06T02:04:13.839Z,99613.88
2023-03-06T02:06:43.313Z,99613.41
2023-03-06T02:09:12.424Z,99608.84
2023-03-06T02:11:40.800Z,99596.38
2023-03-06T02:14:08.305Z,99595.53
2023-03-06T02:16:36.316Z,99594.69
2023-03-06T02:19:07.728Z,99583.94
2023-03-06T02:21:37.761Z,99580.13
2023-03-06T02:24:22.718Z,99574.66
2023-03-06T02:26:52.989Z,99569.47
2023-03-06T02:29:25.451Z,99563.63
2023-03-06T02:31:53.633Z,99562.78
2023-03-06T02:34:56.927Z,99555.75
2023-03-06T02:37:27.508Z,99543.00
2023-03-06T02:40:06.245Z,99543.78
2023-03-06T02:42:34.791Z,99535.47
2023-03-06T02:45:06.215Z,99533.50
2023-03-06T02:47:33.859Z,99536.31
2023-03-06T02:50:01.133Z,99529.78
2023-03-06T02:52:28.182Z,99526.19
2023-03-06T02:54:56.455Z,99515.50
2023-03-06T02:57:24.790Z,99513.00
2023-03-06T02:59:55.281Z,99511.97
2023-03-06T03:02:23.389Z,99516.06
2023-03-06T03:04:51.211Z,99504.69
2023-03-06T03:07:19.671Z,99497.59
2023-03-06T03:09:47.248Z,99499.06
2023-03-06T03:12:14.627Z,99491.44
2023-03-06T03:14:43.273Z,99486.13
2023-03-06T03:17:12.194Z,99480.47
2023-03-06T03:19:39.896Z,99476.94
2023-03-06T03:22:08.778Z,99479.66
2023-03-06T03:24:36.332Z,99469.91
2023-03-06T03:27:04.495Z,99461.13
2023-03-06T03:29:32.546Z,99467.13
2023-03-06T03:32:00.266Z,99466.16
2023-03-06T03:34:28.927Z,99461.38
2023-03-06T03:36:56.253Z,99459.84
2023-03-06T03:39:23.208Z,99464.31
2023-03-06T03:41:50.450Z,99452.63
2023-03-06T03:44:18.597Z,99453.28
2023-03-06T03:46:45.952Z,99447.78
2023-03-06T03:49:13.462Z,99445.31
2023-03-06T03:51:41.773Z,99450.09
2023-03-06T03:54:09.668Z,99445.13
2023-03-06T03:56:37.341Z,99442.84
2023-03-06T03:59:05.767Z,99433.19
2023-03-06T04:01:33.402Z,99447.59
2023-03-06T04:04:01.665Z,99434.69
2023-03-06T04:06:29.844Z,99428.28
2023-03-06T04:08:58.665Z,99422.25
2023-03-06T04:11:26.204Z,99424.91
2023-03-06T04:13:53.947Z,99421.97
2023-03-06T04:16:23.152Z,99418.25
2023-03-06T04:18:50.684Z,99411.34
2023-03-06T04:21:19.229Z,99411.81
2023-03-06T04:23:46.474Z,99414.13
2023-03-06T04:26:15.109Z,99408.91
2023-03-06T04:28:43.425Z,99401.56
2023-03-06T04:31:12.622Z,99406.56
2023-03-06T04:33:40.142Z,99400.06
2023-03-06T04:36:08.612Z,99388.16
2023-03-06T04:38:35.905Z,99395.88
2023-03-06T04:41:03.409Z,99387.09
2023-03-06T04:43:32.527Z,99389.81
2023-03-06T04:45:59.873Z,99389.41
2023-03-06T04:48:27.349Z,99386.22
2023-03-06T04:50:55.564Z,99382.91
2023-03-06T04:53:23.370Z,99375.19
2023-03-06T04:55:51.070Z,99377.31
2023-03-06T04:58:18.669Z,99380.22
2023-03-06T05:00:47.715Z,99373.06
2023-03-06T05:03:15.071Z,99369.75
2023-03-06T05:05:42.649Z,99373.75
2023-03-06T05:08:16.267Z,99363.91
2023-03-06T05:10:44.102Z,99367.03
2023-03-06T05:13:12.467Z,99367.47
2023-03-06T05:15:40.730Z,99360.53
2023-03-06T05:18:10.342Z,99366.59
2023-03-06T05:20:37.970Z,99362.03
2023-03-06T05:23:05.384Z,99360.56
2023-03-06T05:25:32.953Z,99355.09
2023-03-06T05:28:00.609Z,99350.31
2023-03-06T05:30:28.231Z,99344.09
2023-03-06T05:32:56.503Z,99350.78
2023-03-06T05:35:26.121Z,99341.97
2023-03-06T05:37:53.744Z,99348.91
2023-03-06T05:40:21.188Z,99342.84
2023-03-06T05:42:49.177Z,99338.69
2023-03-06T05:45:16.739Z,99335.72
2023-03-06T05:47:44.407Z,99335.31
2023-03-06T05:50:13.521Z,99338.00
2023-03-06T05:52:43.013Z,99340.50
2023-03-06T05:55:13.093Z,99332.75
2023-03-06T05:57:40.823Z,99330.47
2023-03-06T06:00:09.797Z,99332.78
2023-03-06T06:02:37.502Z,99331.13
2023-03-06T06:05:06.238Z,99325.69
2023-03-06T06:07:33.534Z,99328.16
2023-03-06T06:10:04.079Z,99326.09
2023-03-06T06:12:32.566Z,99321.91
2023-03-06T06:15:00.718Z,99322.63
2023-03-06T06:17:28.118Z,99321.09
2023-03-06T06:19:55.469Z,99311.50
2023-03-06T06:22:22.913Z,99311.50
2023-03-06T06:24:50.282Z,99315.06
2023-03-06T06:27:19.326Z,99309.41
2023-03-06T06:29:46.188Z,99309.19
2023-03-06T06:32:14.065Z,99303.97
2023-03-06T06:34:42.619Z,99294.38
2023-03-06T06:37:10.771Z,99286.00
2023-03-06T06:39:39.173Z,99291.88
2023-03-06T06:42:28.640Z,99290.22
2023-03-06T06:44:57.400Z,99291.91
2023-03-06T06:47:25.823Z,99294.41
2023-03-06T06:49:55.337Z,99292.31
2023-03-06T06:52:24.691Z,99288.34
2023-03-06T06:54:53.390Z,99290.59
2023-03-06T06:57:20.937Z,99290.22
2023-03-06T06:59:48.708Z,99282.06
2023-03-06T07:02:18.121Z,99288.56
2023-03-06T07:05:02.486Z,99288.75
2023-03-06T07:07:33.375Z,99281.66
2023-03-06T07:10:00.932Z,99275.81
2023-03-06T07:12:29.191Z,99280.59
2023-03-06T07:14:57.663Z,99275.16
2023-03-06T07:17:26.590Z,99281.84
2023-03-06T07:19:53.797Z,99282.69
2023-03-06T07:22:21.143Z,99285.19
2023-03-06T07:24:48.484Z,99277.88
2023-03-06T07:27:15.878Z,99280.19
2023-03-06T07:29:44.405Z,99283.50
2023-03-06T07:32:11.881Z,99281.41
2023-03-06T07:34:40.741Z,99279.13
2023-03-06T07:37:08.880Z,99289.56
2023-03-06T07:39:36.082Z,99288.75
2023-03-06T07:42:03.737Z,99282.47
2023-03-06T07:44:32.236Z,99283.50
2023-03-06T07:47:00.153Z,99268.88
2023-03-06T07:49:27.512Z,99275.56
2023-03-06T07:51:56.438Z,99267.63
2023-03-06T07:54:23.803Z,99267.81
2023-03-06T07:56:51.800Z,99270.53
2023-03-06T07:59:19.717Z,99268.84
2023-03-06T08:01:47.118Z,99269.44
2023-03-06T08:04:14.482Z,99271.13
2023-03-06T08:06:42.181Z,99263.38
2023-03-06T08:09:11.388Z,99261.66
2023-03-06T08:11:39.893Z,99260.59
2023-03-06T08:14:07.603Z,99256.84
2023-03-06T08:16:35.824Z,99254.75
2023-03-06T08:19:03.358Z,99258.28
2023-03-06T08:21:31.109Z,99254.53
2023-03-06T08:23:58.720Z,99249.31
2023-03-06T08:26:30.157Z,99243.22
2023-03-06T08:29:00.591Z,99242.31
2023-03-06T08:31:29.835Z,99247.41
2023-03-06T08:33:58.975Z,99246.50
2023-03-06T08:36:27.363Z,99244.19
2023-03-06T08:38:55.735Z,99243.28
2023-03-06T08:41:23.202Z,99235.34
2023-03-06T08:43:52.658Z,99237.44
2023-03-06T08:46:23.141Z,99239.31
2023-03-06T08:48:50.311Z,99239.31
2023-03-06T08:51:18.880Z,99240.00
2023-03-06T08:53:47.698Z,99234.06
2023-03-06T08:56:19.139Z,99235.69
2023-03-06T08:58:47.318Z,99239.31
2023-03-06T09:01:19.058Z,99226.13
2023-03-06T09:03:47.076Z,99225.41
2023-03-06T09:06:15.027Z,99222.41
2023-03-06T09:08:42.670Z,99225.72
2023-03-06T09:11:10.504Z,99212.56
2023-03-06T09:13:37.967Z,99207.22
2023-03-06T09:16:06.101Z,99209.31
2023-03-06T09:18:35.350Z,99208.50
2023-03-06T09:21:03.362Z,99210.81
2023-03-06T09:23:31.274Z,99210.56
2023-03-06T09:26:01.960Z,99202.63
2023-03-06T09:28:29.782Z,99202.41
2023-03-06T09:30:57.462Z,99200.00
2023-03-06T09:33:24.694Z,99201.22
2023-03-06T09:35:56.057Z,99199.56
2023-03-06T09:38:25.996Z,99188.84
2023-03-06T09:41:04.120Z,99188.38
2023-03-06T09:43:34.686Z,99195.34
2023-03-06T09:46:06.664Z,99186.13
2023-03-06T09:48:43.304Z,99185.06
2023-03-06T09:51:17.326Z,99185.50
2023-03-06T09:54:02.545Z,99183.88
2023-03-06T09:56:33.557Z,99175.09
2023-03-06T09:59:08.634Z,99184.84
2023-03-06T10:01:40.814Z,99185.16
2023-03-06T10:04:20.389Z,99181.56
2023-03-06T10:06:52.123Z,99179.63
2023-03-06T10:09:24.448Z,99188.78
2023-03-06T10:11:57.429Z,99185.38
2023-03-06T10:14:34.954Z,99180.44
2023-03-06T10:17:02.578Z,99183.19
2023-03-06T10:19:34.151Z,99167.66
2023-03-06T10:22:07.787Z,99171.94
2023-03-06T10:24:50.447Z,99172.72
2023-03-06T10:27:29.624Z,99165.75
2023-03-06T10:30:04.358Z,99163.50
2023-03-06T10:32:48.700Z,99163.59
2023-03-06T10:35:19.041Z,99161.50
2023-03-06T10:37:49.164Z,99163.03
2023-03-06T10:40:19.844Z,99161.06
2023-03-06T10:42:47.052Z,99156.38
2023-03-06T10:45:16.526Z,99155.84
2023-03-06T10:47:44.154Z,99153.00
2023-03-06T10:50:24.403Z,99153.00
2023-03-06T10:53:04.837Z,99151.41
2023-03-06T10:55:34.331Z,99151.06
2023-03-06T10:58:18.013Z,99146.94
2023-03-06T11:00:46.416Z,99150.63
2023-03-06T11:03:20.778Z,99149.47
2023-03-06T11:06:14.179Z,99149.22
2023-03-06T11:08:44.828Z,99144.44
2023-03-06T11:11:16.980Z,99147.47
2023-03-06T11:13:58.791Z,99146.31
2023-03-06T11:16:28.792Z,99141.59
2023-03-06T11:18:58.741Z,99141.50
2023-03-06T11:21:31.453Z,99138.91
2023-03-06T11:24:06.715Z,99129.22
2023-03-06T11:26:44.798Z,99138.91
2023-03-06T11:29:29.598Z,99143.78
2023-03-06T11:32:04.225Z,99141.25
2023-03-06T11:34:44.983Z,99141.47
2023-03-06T11:37:20.888Z,99140.22
2023-03-06T11:40:04.026Z,99140.28
2023-03-06T11:42:37.404Z,99134.84
2023-03-06T11:45:19.857Z,99138.75
2023-03-06T11:47:51.197Z,99118.88
2023-03-06T11:50:23.562Z,99115.16
2023-03-06T11:52:55.475Z,99116.94
2023-03-06T11:55:39.324Z,99124.00
2023-03-06T11:58:31.980Z,99114.78
2023-03-06T12:01:06.886Z,99106.41
2023-03-06T12:04:02.129Z,99100.09
2023-03-06T12:06:42.013Z,99107.09
2023-03-06T12:09:25.717Z,99104.69
2023-03-06T12:12:10.736Z,99094.16
2023-03-06T12:14:58.184Z,99086.28
2023-03-06T12:17:41.564Z,99084.84
2023-03-06T12:20:32.197Z,99083.13
2023-03-06T12:23:15.518Z,99081.06
2023-03-06T12:25:44.566Z,99083.34
2023-03-06T12:28:30.340Z,99073.50
2023-03-06T12:31:19.979Z,99065.91
2023-03-06T12:33:56.746Z,99073.91
2023-03-06T12:36:44.626Z,99065.13
2023-03-06T12:39:17.942Z,99069.13
2023-03-06T12:42:00.942Z,99057.94
2023-03-06T12:44:55.102Z,99067.25
2023-03-06T12:47:27.506Z,99056.22
2023-03-06T12:50:00.239Z,99055.63
2023-03-06T12:52:32.444Z,99064.09
2023-03-06T12:55:01.842Z,99052.00
2023-03-06T12:57:30.668Z,99057.34
2023-03-06T13:00:01.093Z,99050.69
2023-03-06T13:02:56.067Z,99054.19
2023-03-06T13:05:34.252Z,99051.69
2023-03-06T13:08:29.517Z,99050.78
2023-03-06T13:11:23.188Z,99041.16
2023-03-06T13:13:50.897Z,99034.28
2023-03-06T13:16:29.643Z,99040.00
2023-03-06T13:19:03.424Z,99037.19
2023-03-06T13:22:01.073Z,99035.47
2023-03-06T13:24:30.194Z,99032.53
2023-03-06T13:27:04.584Z,99032.81
2023-03-06T13:30:06.407Z,99026.00
2023-03-06T13:32:36.943Z,99026.06
2023-03-06T13:35:33.939Z,99021.81
2023-03-06T13:38:01.589Z,99031.63
2023-03-06T13:40:34.734Z,99029.50
2023-03-06T13:43:23.218Z,99030.22
2023-03-06T13:45:51.001Z,99024.63
2023-03-06T13:48:45.885Z,99027.63
2023-03-06T13:51:25.601Z,99017.16
2023-03-06T13:54:21.473Z,99013.88
2023-03-06T13:57:10.044Z,98999.97
2023-03-06T14:00:12.124Z,99006.25
2023-03-06T14:03:01.299Z,99007.59
2023-03-06T14:05:43.246Z,98995.22
2023-03-06T14:08:14.202Z,99004.97
2023-03-06T14:10:43.704Z,98984.19
2023-03-06T14:13:17.766Z,98989.84
2023-03-06T14:15:47.786Z,98988.19
2023-03-06T14:18:20.341Z,98980.97
2023-03-06T14:20:55.553Z,99010.03
2023-03-06T14:23:26.231Z,98994.25
2023-03-06T14:25:59.613Z,99005.47
2023-03-06T14:28:28.841Z,98992.09
2023-03-06T14:30:58.862Z,99006.81
2023-03-06T14:33:40.141Z,98996.25
2023-03-06T14:36:15.563Z,98997.53
2023-03-06T14:38:50.895Z,98989.38
2023-03-06T14:41:26.150Z,98998.41
2023-03-06T14:43:54.310Z,99002.81
2023-03-06T14:46:23.539Z,98995.06
2023-03-06T14:48:50.982Z,98990.69
2023-03-06T14:51:23.540Z,98999.78
2023-03-06T14:53:53.653Z,98992.44
2023-03-06T14:56:23.815Z,98993.06
2023-03-06T14:58:58.008Z,98995.38
2023-03-06T15:01:31.930Z,98987.66
2023-03-06T15:04:01.931Z,98991.81
2023-03-06T15:06:37.412Z,98983.63
2023-03-06T15:09:14.047Z,98987.53
2023-03-06T15:12:00.109Z,98979.16
2023-03-06T15:14:31.988Z,98969.91
2023-03-06T15:17:25.545Z,98976.22
2023-03-06T15:19:55.030Z,98974.56
2023-03-06T15:22:33.924Z,98974.16
2023-03-06T15:25:18.942Z,98976.16
2023-03-06T15:27:49.869Z,98973.72
2023-03-06T15:30:24.054Z,98978.66
2023-03-06T15:32:52.155Z,98976.53
2023-03-06T15:35:30.846Z,98972.50
2023-03-06T15:38:00.801Z,98969.75
2023-03-06T15:40:29.732Z,98969.78
2023-03-06T15:42:58.424Z,98967.44
2023-03-06T15:45:27.812Z,98968.28
2023-03-06T15:47:56.113Z,98960.84
2023-03-06T15:50:25.826Z,98964.06
2023-03-06T15:52:54.608Z,98956.75
2023-03-06T15:55:25.994Z,98961.97
2023-03-06T15:57:56.764Z,98958.19
2023-03-06T16:00:28.366Z,98950.75
2023-03-06T16:02:56.697Z,98946.28
2023-03-06T16:05:25.565Z,98939.50
2023-03-06T16:07:54.034Z,98942.28
2023-03-06T16:10:25.753Z,98937.72
2023-03-06T16:12:57.377Z,98930.47
2023-03-06T16:15:26.930Z,98928.00
2023-03-06T16:17:54.699Z,98928.22
2023-03-06T16:20:25.026Z,98927.34
2023-03-06T16:22:53.564Z,98928.81
2023-03-06T16:25:24.163Z,98925.38
2023-03-06T16:27:53.733Z,98940.94
2023-03-06T16:30:22.593Z,98933.78
2023-03-06T16:32:50.070Z,98922.53
2023-03-06T16:35:18.259Z,98927.31
2023-03-06T16:37:46.872Z,98916.09
2023-03-06T16:40:19.334Z,98924.59
2023-03-06T16:42:49.429Z,98935.06
2023-03-06T16:45:18.567Z,98938.84
2023-03-06T16:47:48.017Z,98938.75
2023-03-06T16:50:23.542Z,98941.34
2023-03-06T16:52:53.337Z,98941.78
2023-03-06T16:55:21.260Z,98941.31
2023-03-06T16:57:50.560Z,98937.16
2023-03-06T17:00:18.699Z,98933.38
2023-03-06T17:02:49.981Z,98938.00
2023-03-06T17:05:18.629Z,98938.63
2023-03-06T17:07:47.520Z,98940.28
2023-03-06T17:10:16.409Z,98948.53
2023-03-06T17:12:44.085Z,98941.53
2023-03-06T17:15:13.248Z,98933.34
2023-03-06T17:17:40.776Z,98938.63
2023-03-06T17:20:10.424Z,98937.44
2023-03-06T17:22:37.699Z,98940.06
2023-03-06T17:25:07.121Z,98938.53
2023-03-06T17:27:35.482Z,98932.34
2023-03-06T17:30:03.965Z,98926.69
2023-03-06T17:32:32.852Z,98931.72
2023-03-06T17:35:01.478Z,98929.28
2023-03-06T17:37:29.271Z,98932.22
2023-03-06T17:39:57.610Z,98929.22
2023-03-06T17:42:24.608Z,98930.75
2023-03-06T17:44:52.309Z,98931.84
2023-03-06T17:47:20.386Z,98922.47
2023-03-06T17:49:49.595Z,98928.50
2023-03-06T17:52:17.683Z,98925.56
2023-03-06T17:54:45.358Z,98919.06
2023-03-06T17:57:12.168Z,98923.84
2023-03-06T17:59:39.842Z,98923.44
2023-03-06T18:02:07.708Z,98921.97
2023-03-06T18:04:35.826Z,98917.78
2023-03-06T18:07:05.194Z,98918.03
2023-03-06T18:09:32.578Z,98917.44
2023-03-06T18:11:59.960Z,98921.22
2023-03-06T18:14:28.095Z,98926.44
2023-03-06T18:16:55.535Z,98924.13
2023-03-06T18:19:22.797Z,98925.56
2023-03-06T18:21:50.518Z,98921.63
2023-03-06T18:24:19.662Z,98920.16
2023-03-06T18:26:47.309Z,98922.44
2023-03-06T18:29:15.636Z,98923.06
2023-03-06T18:31:45.589Z,98923.69
2023-03-06T18:34:14.675Z,98912.84
2023-03-06T18:36:42.458Z,98920.78
2023-03-06T18:39:11.849Z,98919.53
2023-03-06T18:41:42.502Z,98912.22
2023-03-06T18:44:13.844Z,98915.56
2023-03-06T18:46:41.495Z,98916.63
2023-03-06T18:49:10.166Z,98900.97
2023-03-06T18:51:37.889Z,98909.56
2023-03-06T18:54:07.016Z,98912.50
2023-03-06T18:56:35.052Z,98903.09
2023-03-06T18:59:05.519Z,98906.69
2023-03-06T19:01:33.496Z,98910.00
2023-03-06T19:04:01.914Z,98903.94
2023-03-06T19:06:29.599Z,98896.00
2023-03-06T19:08:57.293Z,98896.63
2023-03-06T19:11:27.076Z,98887.03
2023-03-06T19:13:54.927Z,98890.38
2023-03-06T19:16:27.464Z,98884.53
2023-03-06T19:18:56.189Z,98884.94
2023-03-06T19:21:25.483Z,98888.84
2023-03-06T19:23:55.221Z,98889.47
2023-03-06T19:26:23.073Z,98881.94
2023-03-06T19:28:51.236Z,98883.59
2023-03-06T19:31:20.533Z,98891.09
2023-03-06T19:33:50.288Z,98882.75
2023-03-06T19:36:18.410Z,98886.56
2023-03-06T19:38:46.810Z,98877.81
2023-03-06T19:41:14.182Z,98872.97
2023-03-06T19:43:43.093Z,98879.91
2023-03-06T19:46:12.535Z,98883.06
2023-03-06T19:48:40.475Z,98880.34
2023-03-06T19:51:10.370Z,98877.44
2023-03-06T19:53:38.093Z,98880.56
2023-03-06T19:56:06.963Z,98883.91
2023-03-06T19:58:34.484Z,98880.41
2023-03-06T20:01:07.004Z,98869.34
2023-03-06T20:03:34.698Z,98866.22
2023-03-06T20:06:01.784Z,98870.81
2023-03-06T20:08:31.219Z,98866.84
2023-03-06T20:10:58.464Z,98869.78
2023-03-06T20:13:26.001Z,98872.09
2023-03-06T20:15:53.721Z,98872.13
2023-03-06T20:18:21.206Z,98871.06
2023-03-06T20:20:58.281Z,98874.63
2023-03-06T20:23:26.060Z,98871.06
2023-03-06T20:25:57.134Z,98874.16
2023-03-06T20:28:24.840Z,98864.56
2023-03-06T20:30:52.003Z,98861.00
2023-03-06T20:33:19.535Z,98862.03
2023-03-06T20:35:47.482Z,98862.66
2023-03-06T20:38:15.167Z,98860.16
2023-03-06T20:40:43.508Z,98867.88
2023-03-06T20:43:12.536Z,98861.63
2023-03-06T20:45:39.669Z,98858.91
2023-03-06T20:48:07.837Z,98857.44
2023-03-06T20:50:35.323Z,98856.97
2023-03-06T20:53:03.332Z,98853.84
2023-03-06T20:55:30.917Z,98852.59
2023-03-06T20:57:58.588Z,98851.75
2023-03-06T21:00:28.503Z,98854.50
2023-03-06T21:02:55.968Z,98853.69
2023-03-06T21:05:24.396Z,98845.91
2023-03-06T21:07:53.992Z,98845.09
2023-03-06T21:10:21.140Z,98849.03
2023-03-06T21:12:49.167Z,98842.78
2023-03-06T21:15:16.675Z,98840.28
2023-03-06T21:17:46.035Z,98844.50
2023-03-06T21:20:13.593Z,98839.47
2023-03-06T21:22:40.745Z,98840.75
2023-03-06T21:25:08.876Z,98836.78
2023-03-06T21:27:35.758Z,98843.47
2023-03-06T21:30:04.187Z,98838.72
2023-03-06T21:32:31.798Z,98841.03
2023-03-06T21:35:01.646Z,98834.16
2023-03-06T21:37:29.388Z,98837.09
2023-03-06T21:39:59.381Z,98832.88
2023-03-06T21:42:28.109Z,98829.34
2023-03-06T21:44:58.303Z,98835.22
2023-03-06T21:47:25.474Z,98832.50
2023-03-06T21:49:53.909Z,98831.25
2023-03-06T21:52:23.333Z,98833.13
2023-03-06T21:54:51.528Z,98824.59
2023-03-06T21:57:19.662Z,98824.59
2023-03-06T21:59:47.711Z,98824.78
2023-03-06T22:02:16.540Z,98820.00
2023-03-06T22:04:44.036Z,98820.81
2023-03-06T22:07:11.540Z,98819.56
2023-03-06T22:09:41.133Z,98817.47
2023-03-06T22:12:09.396Z,98804.97
2023-03-06T22:14:38.060Z,98801.88
2023-03-06T22:17:05.374Z,98803.75
2023-03-06T22:19:33.075Z,98805.41
2023-03-06T22:22:00.758Z,98799.56
2023-03-06T22:24:28.314Z,98797.28
2023-03-06T22:26:57.810Z,98799.16
2023-03-06T22:29:26.561Z,98798.94
2023-03-06T22:31:54.336Z,98797.91
2023-03-06T22:34:22.114Z,98798.94
2023-03-06T22:36:49.455Z,98798.31
2023-03-06T22:39:17.022Z,98795.63
2023-03-06T22:41:44.746Z,98798.75
2023-03-06T22:44:19.220Z,98803.34
2023-03-06T22:46:47.188Z,98796.25
2023-03-06T22:49:14.980Z,98794.38
2023-03-06T22:51:42.710Z,98796.03
2023-03-06T22:54:11.197Z,98798.31
2023-03-06T22:56:39.213Z,98798.50
2023-03-06T22:59:07.708Z,98797.88
2023-03-06T23:01:38.239Z,98798.72
2023-03-06T23:04:06.111Z,98795.16
2023-03-06T23:06:35.665Z,98793.91
2023-03-06T23:09:06.428Z,98788.53
2023-03-06T23:11:34.753Z,98794.78
2023-03-06T23:14:02.629Z,98790.78
2023-03-06T23:16:30.171Z,98793.13
2023-03-06T23:18:59.981Z,98791.66
2023-03-06T23:21:27.757Z,98782.69
2023-03-06T23:23:55.154Z,98780.38
2023-03-06T23:26:24.363Z,98785.00
2023-03-06T23:28:52.279Z,98777.91
2023-03-06T23:31:23.343Z,98778.31
2023-03-06T23:33:51.127Z,98782.28
2023-03-06T23:36:20.274Z,98784.16
2023-03-06T23:38:48.828Z,98783.72
2023-03-06T23:41:17.737Z,98781.63
2023-03-06T23:43:45.748Z,98775.41
2023-03-06T23:46:14.197Z,98773.53
2023-03-06T23:48:43.657Z,98769.13
2023-03-06T23:51:15.623Z,98767.03
2023-03-06T23:53:45.946Z,98765.38
2023-03-06T23:56:13.839Z,98771.22
2023-03-06T23:58:41.862Z,98760.78
